CheckWX is a tool to help pilots better visualize weather data.  It is not intended as a substitute for an official pre-flight weather briefing.

12:01:08 UTC

CYKL METAR
Schefferville Airport
Schefferville, Canada
Current

1 hour ago

CYKL 251100Z AUTO 27013G19KT 8SM BKN027 M29/M34 A2935 RMK SLP006
Observed
Mar-25 @ 11:00 UTC
Wind
  • 270° at 13 KTS
  • Gusting to 19 KTS
Visibility
8 SM
Flight Rules
MVFR
Cloud Levels
  • Broken at 2,700' AGL
Temperature
-29°C / -20°F
Dewpoint
-34°C / -29°F
Humidity
62%
Altimeter
29.35" Hg
Pressure
1000.6 hPa
Previous

2 hours ago

CYKL 251000Z AUTO 27013G19KT 9SM CLR M28/M34 A2934 RMK SLP004
Observed
Mar-25 @ 10:00 UTC
Wind
  • 270° at 13 KTS
  • Gusting to 19 KTS
Visibility
9 SM
Flight Rules
VFR
Cloud Levels
  • Clear skies
Temperature
-28°C / -18°F
Dewpoint
-34°C / -29°F
Humidity
56%
Altimeter
29.34" Hg
Pressure
1000.4 hPa
Previous

3 hours ago

CYKL 250900Z AUTO 29015G21KT 9SM OVC032 M27/M33 A2933 RMK SLP999
Observed
Mar-25 @ 09:00 UTC
Wind
  • 290° at 15 KTS
  • Gusting to 21 KTS
Visibility
9 SM
Flight Rules
VFR
Cloud Levels
  • Overcast at 3,200' AGL
Temperature
-27°C / -17°F
Dewpoint
-33°C / -27°F
Humidity
57%
Altimeter
29.33" Hg
Pressure
999.9 hPa